sensor_id;sensor_type;location;lat;lon;timestamp;pressure;altitude;pressure_sealevel;temperature;humidity
5283;BME280;15376;48.540;9.268;2023-04-15T00:02:14;96560.75;;;1.23;100.00
5283;BME280;15376;48.540;9.268;2023-04-15T00:04:39;96559.72;;;1.16;100.00
5283;BME280;15376;48.540;9.268;2023-04-15T00:07:05;96549.31;;;1.24;100.00
5283;BME280;15376;48.540;9.268;2023-04-15T00:09:30;96558.22;;;1.31;100.00
5283;BME280;15376;48.540;9.268;2023-04-15T00:11:55;96555.63;;;1.31;100.00
5283;BME280;15376;48.540;9.268;2023-04-15T00:14:21;96553.91;;;1.40;100.00
5283;BME280;15376;48.540;9.268;2023-04-15T00:16:47;96540.06;;;1.29;100.00
5283;BME280;15376;48.540;9.268;2023-04-15T00:19:19;96556.22;;;1.43;100.00
5283;BME280;15376;48.540;9.268;2023-04-15T00:21:44;96552.56;;;1.53;100.00
5283;BME280;15376;48.540;9.268;2023-04-15T00:24:10;96560.84;;;1.66;100.00
5283;BME280;15376;48.540;9.268;2023-04-15T00:26:35;96559.19;;;1.65;100.00
5283;BME280;15376;48.540;9.268;2023-04-15T00:29:01;96528.34;;;1.51;100.00
5283;BME280;15376;48.540;9.268;2023-04-15T00:31:27;96551.72;;;1.88;100.00
5283;BME280;15376;48.540;9.268;2023-04-15T00:33:53;96551.63;;;1.98;100.00
5283;BME280;15376;48.540;9.268;2023-04-15T00:36:19;96540.00;;;2.00;100.00
5283;BME280;15376;48.540;9.268;2023-04-15T00:38:44;96548.44;;;2.12;100.00
5283;BME280;15376;48.540;9.268;2023-04-15T00:41:10;96535.94;;;2.06;100.00
5283;BME280;15376;48.540;9.268;2023-04-15T00:43:36;96551.41;;;2.17;100.00
5283;BME280;15376;48.540;9.268;2023-04-15T00:46:03;96557.38;;;2.27;100.00
5283;BME280;15376;48.540;9.268;2023-04-15T00:48:29;96543.41;;;2.19;100.00
5283;BME280;15376;48.540;9.268;2023-04-15T00:50:55;96550.16;;;2.04;100.00
5283;BME280;15376;48.540;9.268;2023-04-15T00:53:21;96550.81;;;1.97;100.00
5283;BME280;15376;48.540;9.268;2023-04-15T00:55:46;96547.72;;;2.02;100.00
5283;BME280;15376;48.540;9.268;2023-04-15T00:58:11;96549.00;;;1.98;100.00
5283;BME280;15376;48.540;9.268;2023-04-15T01:00:37;96540.63;;;1.94;100.00
5283;BME280;15376;48.540;9.268;2023-04-15T01:03:02;96549.66;;;2.00;100.00
5283;BME280;15376;48.540;9.268;2023-04-15T01:05:28;96551.28;;;2.01;100.00
5283;BME280;15376;48.540;9.268;2023-04-15T01:07:54;96558.84;;;2.04;100.00
5283;BME280;15376;48.540;9.268;2023-04-15T01:10:20;96555.09;;;2.07;100.00
5283;BME280;15376;48.540;9.268;2023-04-15T01:12:46;96548.38;;;2.04;100.00
5283;BME280;15376;48.540;9.268;2023-04-15T01:15:12;96551.63;;;1.98;100.00
5283;BME280;15376;48.540;9.268;2023-04-15T01:17:38;96544.00;;;1.87;100.00
5283;BME280;15376;48.540;9.268;2023-04-15T01:20:04;96555.41;;;2.04;100.00
5283;BME280;15376;48.540;9.268;2023-04-15T01:22:32;96547.00;;;1.92;100.00
5283;BME280;15376;48.540;9.268;2023-04-15T01:25:06;96530.53;;;1.56;100.00
5283;BME280;15376;48.540;9.268;2023-04-15T01:27:34;96552.41;;;1.19;100.00
5283;BME280;15376;48.540;9.268;2023-04-15T01:30:00;96549.84;;;1.10;100.00
5283;BME280;15376;48.540;9.268;2023-04-15T01:32:27;96554.91;;;0.93;100.00
5283;BME280;15376;48.540;9.268;2023-04-15T01:34:53;96549.28;;;0.61;100.00
5283;BME280;15376;48.540;9.268;2023-04-15T01:37:18;96558.38;;;0.57;100.00
5283;BME280;15376;48.540;9.268;2023-04-15T01:39:44;96548.78;;;0.48;100.00
5283;BME280;15376;48.540;9.268;2023-04-15T01:42:10;96559.09;;;0.49;100.00
5283;BME280;15376;48.540;9.268;2023-04-15T01:44:35;96554.91;;;0.29;100.00
5283;BME280;15376;48.540;9.268;2023-04-15T01:47:01;96560.13;;;0.29;100.00
5283;BME280;15376;48.540;9.268;2023-04-15T01:49:26;96545.63;;;0.07;100.00
5283;BME280;15376;48.540;9.268;2023-04-15T01:51:52;96561.41;;;0.15;100.00
5283;BME280;15376;48.540;9.268;2023-04-15T01:54:18;96561.84;;;0.01;100.00
5283;BME280;15376;48.540;9.268;2023-04-15T01:56:43;96556.63;;;0.01;100.00
5283;BME280;15376;48.540;9.268;2023-04-15T01:59:09;96557.75;;;-0.11;100.00
5283;BME280;15376;48.540;9.268;2023-04-15T02:01:34;96565.59;;;-0.11;100.00
5283;BME280;15376;48.540;9.268;2023-04-15T02:03:59;96560.22;;;-0.10;100.00
5283;BME280;15376;48.540;9.268;2023-04-15T02:06:25;96563.25;;;-0.14;100.00
5283;BME280;15376;48.540;9.268;2023-04-15T02:08:52;96550.50;;;-0.17;100.00
5283;BME280;15376;48.540;9.268;2023-04-15T02:11:17;96562.44;;;-0.15;100.00
5283;BME280;15376;48.540;9.268;2023-04-15T02:13:43;96557.06;;;-0.13;100.00
5283;BME280;15376;48.540;9.268;2023-04-15T02:16:18;96531.81;;;-0.32;100.00
5283;BME280;15376;48.540;9.268;2023-04-15T02:18:45;96557.22;;;-0.15;100.00
5283;BME280;15376;48.540;9.268;2023-04-15T02:21:11;96557.22;;;-0.15;100.00
5283;BME280;15376;48.540;9.268;2023-04-15T02:23:36;96544.59;;;-0.19;100.00
5283;BME280;15376;48.540;9.268;2023-04-15T02:26:02;96544.84;;;-0.13;100.00
5283;BME280;15376;48.540;9.268;2023-04-15T02:28:27;96548.97;;;-0.01;100.00
5283;BME280;15376;48.540;9.268;2023-04-15T02:30:52;96539.91;;;-0.06;100.00
5283;BME280;15376;48.540;9.268;2023-04-15T02:33:21;96536.88;;;-0.02;100.00
5283;BME280;15376;48.540;9.268;2023-04-15T02:35:46;96546.03;;;0.03;100.00
5283;BME280;15376;48.540;9.268;2023-04-15T02:38:12;96552.34;;;0.10;100.00
5283;BME280;15376;48.540;9.268;2023-04-15T02:40:38;96533.03;;;-0.07;100.00
5283;BME280;15376;48.540;9.268;2023-04-15T02:43:04;96545.66;;;-0.03;100.00
5283;BME280;15376;48.540;9.268;2023-04-15T02:45:31;96536.88;;;-0.11;100.00
5283;BME280;15376;48.540;9.268;2023-04-15T02:47:57;96553.63;;;-0.04;100.00
5283;BME280;15376;48.540;9.268;2023-04-15T02:50:22;96545.94;;;-0.06;100.00
5283;BME280;15376;48.540;9.268;2023-04-15T02:52:49;96545.31;;;0.20;100.00
5283;BME280;15376;48.540;9.268;2023-04-15T02:55:16;96538.34;;;0.48;100.00
5283;BME280;15376;48.540;9.268;2023-04-15T02:57:42;96548.44;;;0.70;100.00
5283;BME280;15376;48.540;9.268;2023-04-15T03:00:08;96527.63;;;0.41;100.00
5283;BME280;15376;48.540;9.268;2023-04-15T03:02:36;96553.28;;;0.55;100.00
5283;BME280;15376;48.540;9.268;2023-04-15T03:05:02;96551.63;;;0.64;100.00
5283;BME280;15376;48.540;9.268;2023-04-15T03:07:28;96563.59;;;0.57;100.00
5283;BME280;15376;48.540;9.268;2023-04-15T03:09:53;96540.88;;;0.40;100.00
5283;BME280;15376;48.540;9.268;2023-04-15T03:12:19;96554.53;;;0.51;100.00
5283;BME280;15376;48.540;9.268;2023-04-15T03:14:44;96543.81;;;0.54;100.00
5283;BME280;15376;48.540;9.268;2023-04-15T03:17:10;96548.47;;;0.60;100.00
5283;BME280;15376;48.540;9.268;2023-04-15T03:19:35;96554.09;;;0.65;100.00
5283;BME280;15376;48.540;9.268;2023-04-15T03:22:01;96548.72;;;0.40;100.00
5283;BME280;15376;48.540;9.268;2023-04-15T03:24:26;96548.72;;;0.40;100.00
5283;BME280;15376;48.540;9.268;2023-04-15T03:26:53;96548.78;;;0.48;100.00
5283;BME280;15376;48.540;9.268;2023-04-15T03:29:19;96547.00;;;0.48;100.00
5283;BME280;15376;48.540;9.268;2023-04-15T03:31:44;96536.25;;;0.24;100.00
5283;BME280;15376;48.540;9.268;2023-04-15T03:34:10;96552.47;;;0.18;100.00
5283;BME280;15376;48.540;9.268;2023-04-15T03:36:35;96553.63;;;-0.04;100.00
5283;BME280;15376;48.540;9.268;2023-04-15T03:39:01;96551.72;;;-0.02;100.00
5283;BME280;15376;48.540;9.268;2023-04-15T03:41:27;96546.28;;;0.19;100.00
5283;BME280;15376;48.540;9.268;2023-04-15T03:43:53;96540.91;;;0.30;100.00
5283;BME280;15376;48.540;9.268;2023-04-15T03:46:18;96554.28;;;0.45;100.00
5283;BME280;15376;48.540;9.268;2023-04-15T03:48:44;96548.22;;;0.54;100.00
5283;BME280;15376;48.540;9.268;2023-04-15T03:51:09;96545.88;;;0.51;100.00
5283;BME280;15376;48.540;9.268;2023-04-15T03:53:35;96554.81;;;0.58;100.00
5283;BME280;15376;48.540;9.268;2023-04-15T03:56:00;96556.06;;;0.54;100.00
5283;BME280;15376;48.540;9.268;2023-04-15T03:58:26;96549.31;;;0.14;100.00
5283;BME280;15376;48.540;9.268;2023-04-15T04:00:51;96556.13;;;-0.12;100.00
5283;BME280;15376;48.540;9.268;2023-04-15T04:03:17;96551.41;;;0.01;100.00
5283;BME280;15376;48.540;9.268;2023-04-15T04:05:42;96556.13;;;-0.12;100.00
5283;BME280;15376;48.540;9.268;2023-04-15T04:08:09;96555.00;;;0.00;100.00
5283;BME280;15376;48.540;9.268;2023-04-15T04:10:35;96548.66;;;0.03;100.00
5283;BME280;15376;48.540;9.268;2023-04-15T04:13:00;96550.34;;;-0.06;100.00
5283;BME280;15376;48.540;9.268;2023-04-15T04:15:26;96554.19;;;-0.01;100.00
5283;BME280;15376;48.540;9.268;2023-04-15T04:17:51;96567.91;;;-0.08;100.00
5283;BME280;15376;48.540;9.268;2023-04-15T04:20:17;96562.31;;;-0.23;100.00
5283;BME280;15376;48.540;9.268;2023-04-15T04:22:42;96564.09;;;-0.23;100.00
5283;BME280;15376;48.540;9.268;2023-04-15T04:25:08;96564.63;;;-0.29;100.00
5283;BME280;15376;48.540;9.268;2023-04-15T04:27:34;96570.13;;;-0.13;100.00
5283;BME280;15376;48.540;9.268;2023-04-15T04:30:00;96568.19;;;-0.11;100.00
5283;BME280;15376;48.540;9.268;2023-04-15T04:32:26;96575.13;;;0.17;100.00
5283;BME280;15376;48.540;9.268;2023-04-15T04:34:51;96577.03;;;0.25;100.00
5283;BME280;15376;48.540;9.268;2023-04-15T04:37:16;96575.00;;;0.09;100.00
5283;BME280;15376;48.540;9.268;2023-04-15T04:39:42;96573.38;;;0.08;100.00
5283;BME280;15376;48.540;9.268;2023-04-15T04:42:07;96572.81;;;0.14;100.00
5283;BME280;15376;48.540;9.268;2023-04-15T04:44:33;96582.66;;;0.30;100.00
5283;BME280;15376;48.540;9.268;2023-04-15T04:46:58;96576.06;;;0.36;100.00
5283;BME280;15376;48.540;9.268;2023-04-15T04:49:23;96571.13;;;0.32;100.00
5283;BME280;15376;48.540;9.268;2023-04-15T04:51:49;96572.03;;;0.41;100.00
5283;BME280;15376;48.540;9.268;2023-04-15T04:54:14;96573.31;;;0.37;100.00
5283;BME280;15376;48.540;9.268;2023-04-15T04:56:40;96561.50;;;0.33;100.00
5283;BME280;15376;48.540;9.268;2023-04-15T04:59:05;96561.53;;;0.23;100.00
5283;BME280;15376;48.540;9.268;2023-04-15T05:01:31;96581.31;;;0.26;100.00
5283;BME280;15376;48.540;9.268;2023-04-15T05:03:57;96584.31;;;0.31;100.00
5283;BME280;15376;48.540;9.268;2023-04-15T05:06:22;96570.72;;;0.27;100.00
5283;BME280;15376;48.540;9.268;2023-04-15T05:08:47;96570.03;;;0.25;100.00
5283;BME280;15376;48.540;9.268;2023-04-15T05:11:13;96570.03;;;0.25;100.00
5283;BME280;15376;48.540;9.268;2023-04-15T05:13:38;96581.81;;;0.39;100.00
5283;BME280;15376;48.540;9.268;2023-04-15T05:16:05;96581.78;;;0.49;100.00
5283;BME280;15376;48.540;9.268;2023-04-15T05:18:30;96573.66;;;0.52;100.00
5283;BME280;15376;48.540;9.268;2023-04-15T05:20:56;96596.31;;;0.61;100.00
5283;BME280;15376;48.540;9.268;2023-04-15T05:23:21;96567.22;;;0.46;100.00
5283;BME280;15376;48.540;9.268;2023-04-15T05:25:47;96583.34;;;0.69;100.00
5283;BME280;15376;48.540;9.268;2023-04-15T05:28:12;96576.66;;;0.84;100.00
5283;BME280;15376;48.540;9.268;2023-04-15T05:30:38;96589.50;;;1.05;100.00
5283;BME280;15376;48.540;9.268;2023-04-15T05:33:03;96592.94;;;0.78;100.00
5283;BME280;15376;48.540;9.268;2023-04-15T05:35:29;96596.56;;;0.95;100.00
5283;BME280;15376;48.540;9.268;2023-04-15T05:37:54;96589.00;;;0.92;100.00
5283;BME280;15376;48.540;9.268;2023-04-15T05:40:20;96593.13;;;0.94;100.00
5283;BME280;15376;48.540;9.268;2023-04-15T05:42:45;96587.91;;;0.94;100.00
5283;BME280;15376;48.540;9.268;2023-04-15T05:45:10;96587.31;;;1.00;100.00
5283;BME280;15376;48.540;9.268;2023-04-15T05:47:36;96584.56;;;1.02;100.00
5283;BME280;15376;48.540;9.268;2023-04-15T05:50:02;96593.53;;;0.99;100.00
5283;BME280;15376;48.540;9.268;2023-04-15T05:52:28;96591.69;;;1.10;100.00
5283;BME280;15376;48.540;9.268;2023-04-15T05:54:53;96597.97;;;1.17;100.00
5283;BME280;15376;48.540;9.268;2023-04-15T05:57:18;96586.41;;;1.37;100.00
5283;BME280;15376;48.540;9.268;2023-04-15T05:59:43;96588.34;;;1.71;100.00
5283;BME280;15376;48.540;9.268;2023-04-15T06:02:09;96591.25;;;2.03;100.00
5283;BME280;15376;48.540;9.268;2023-04-15T06:04:35;96564.56;;;2.25;100.00
5283;BME280;15376;48.540;9.268;2023-04-15T06:07:01;96589.38;;;2.65;100.00
5283;BME280;15376;48.540;9.268;2023-04-15T06:09:26;96578.00;;;2.90;100.00
5283;BME280;15376;48.540;9.268;2023-04-15T06:11:53;96576.63;;;3.20;100.00
5283;BME280;15376;48.540;9.268;2023-04-15T06:14:18;96580.47;;;3.42;100.00
5283;BME280;15376;48.540;9.268;2023-04-15T06:16:44;96576.22;;;3.49;100.00
5283;BME280;15376;48.540;9.268;2023-04-15T06:19:09;96559.63;;;3.41;100.00
5283;BME280;15376;48.540;9.268;2023-04-15T06:21:35;96574.59;;;3.48;100.00
5283;BME280;15376;48.540;9.268;2023-04-15T06:24:00;96575.91;;;3.52;100.00
5283;BME280;15376;48.540;9.268;2023-04-15T06:26:26;96567.38;;;3.58;100.00
5283;BME280;15376;48.540;9.268;2023-04-15T06:28:52;96572.66;;;3.83;100.00
5283;BME280;15376;48.540;9.268;2023-04-15T06:31:17;96563.63;;;3.77;100.00
5283;BME280;15376;48.540;9.268;2023-04-15T06:33:43;96580.84;;;3.88;100.00
5283;BME280;15376;48.540;9.268;2023-04-15T06:36:08;96572.66;;;3.99;100.00
5283;BME280;15376;48.540;9.268;2023-04-15T06:38:33;96584.47;;;4.19;100.00
5283;BME280;15376;48.540;9.268;2023-04-15T06:40:59;96579.50;;;4.41;100.00
5283;BME280;15376;48.540;9.268;2023-04-15T06:43:25;96574.44;;;4.39;100.00
5283;BME280;15376;48.540;9.268;2023-04-15T06:45:50;96589.31;;;4.71;100.00
5283;BME280;15376;48.540;9.268;2023-04-15T06:48:15;96586.59;;;4.95;100.00
5283;BME280;15376;48.540;9.268;2023-04-15T06:50:42;96596.38;;;5.18;100.00
5283;BME280;15376;48.540;9.268;2023-04-15T06:53:07;96575.06;;;5.05;100.00
5283;BME280;15376;48.540;9.268;2023-04-15T06:55:32;96594.31;;;5.36;100.00
5283;BME280;15376;48.540;9.268;2023-04-15T06:57:58;96592.53;;;5.28;100.00
5283;BME280;15376;48.540;9.268;2023-04-15T07:00:23;96585.38;;;5.14;100.00
5283;BME280;15376;48.540;9.268;2023-04-15T07:02:49;96593.00;;;5.32;100.00
5283;BME280;15376;48.540;9.268;2023-04-15T07:05:15;96587.94;;;5.22;100.00
5283;BME280;15376;48.540;9.268;2023-04-15T07:07:41;96591.34;;;5.39;100.00
5283;BME280;15376;48.540;9.268;2023-04-15T07:10:07;96565.25;;;5.21;100.00
5283;BME280;15376;48.540;9.268;2023-04-15T07:12:33;96593.44;;;5.44;100.00
5283;BME280;15376;48.540;9.268;2023-04-15T07:14:59;96576.19;;;5.41;100.00
5283;BME280;15376;48.540;9.268;2023-04-15T07:17:24;96573.03;;;5.46;100.00
5283;BME280;15376;48.540;9.268;2023-04-15T07:19:49;96582.06;;;5.74;100.00
5283;BME280;15376;48.540;9.268;2023-04-15T07:22:15;96582.25;;;5.73;100.00
5283;BME280;15376;48.540;9.268;2023-04-15T07:24:43;96576.31;;;5.70;100.00
5283;BME280;15376;48.540;9.268;2023-04-15T07:27:09;96556.19;;;5.78;100.00
5283;BME280;15376;48.540;9.268;2023-04-15T07:29:34;96574.06;;;6.13;100.00
5283;BME280;15376;48.540;9.268;2023-04-15T07:31:59;96572.84;;;6.01;100.00
5283;BME280;15376;48.540;9.268;2023-04-15T07:34:25;96564.56;;;6.04;100.00
5283;BME280;15376;48.540;9.268;2023-04-15T07:36:50;96568.94;;;6.34;100.00
5283;BME280;15376;48.540;9.268;2023-04-15T07:39:19;96574.69;;;6.53;99.90
5283;BME280;15376;48.540;9.268;2023-04-15T07:41:44;96564.16;;;6.67;97.17
5283;BME280;15376;48.540;9.268;2023-04-15T07:44:10;96553.13;;;6.93;96.67
5283;BME280;15376;48.540;9.268;2023-04-15T07:46:36;96564.25;;;7.54;95.98
5283;BME280;15376;48.540;9.268;2023-04-15T07:49:02;96561.44;;;7.77;94.64
5283;BME280;15376;48.540;9.268;2023-04-15T07:51:27;96560.38;;;7.93;93.54
5283;BME280;15376;48.540;9.268;2023-04-15T07:53:54;96564.78;;;7.86;93.70
5283;BME280;15376;48.540;9.268;2023-04-15T07:56:19;96560.19;;;7.94;92.42
5283;BME280;15376;48.540;9.268;2023-04-15T07:58:45;96548.53;;;7.89;92.69
5283;BME280;15376;48.540;9.268;2023-04-15T08:01:10;96564.13;;;7.84;94.91
5283;BME280;15376;48.540;9.268;2023-04-15T08:03:36;96562.31;;;7.84;93.90
5283;BME280;15376;48.540;9.268;2023-04-15T08:06:01;96564.41;;;7.89;92.71
5283;BME280;15376;48.540;9.268;2023-04-15T08:08:27;96560.38;;;7.93;90.38
5283;BME280;15376;48.540;9.268;2023-04-15T08:10:52;96566.63;;;8.13;91.17
5283;BME280;15376;48.540;9.268;2023-04-15T08:13:20;96562.72;;;8.30;87.64
5283;BME280;15376;48.540;9.268;2023-04-15T08:15:52;96560.94;;;8.59;85.21
5283;BME280;15376;48.540;9.268;2023-04-15T08:18:17;96565.59;;;8.91;84.34
5283;BME280;15376;48.540;9.268;2023-04-15T08:20:43;96559.78;;;9.02;83.93
5283;BME280;15376;48.540;9.268;2023-04-15T08:23:08;96565.41;;;9.34;81.89
5283;BME280;15376;48.540;9.268;2023-04-15T08:25:34;96561.81;;;9.48;79.18
5283;BME280;15376;48.540;9.268;2023-04-15T08:28:03;96556.81;;;9.93;78.76
5283;BME280;15376;48.540;9.268;2023-04-15T08:30:28;96567.22;;;10.01;76.61
5283;BME280;15376;48.540;9.268;2023-04-15T08:32:53;96573.53;;;10.00;76.96
5283;BME280;15376;48.540;9.268;2023-04-15T08:35:19;96559.53;;;10.52;75.84
5283;BME280;15376;48.540;9.268;2023-04-15T08:37:44;96565.78;;;10.97;73.90
5283;BME280;15376;48.540;9.268;2023-04-15T08:40:10;96569.13;;;11.38;73.51
5283;BME280;15376;48.540;9.268;2023-04-15T08:42:40;96570.50;;;11.53;71.70
5283;BME280;15376;48.540;9.268;2023-04-15T08:45:08;96565.25;;;11.40;70.76
5283;BME280;15376;48.540;9.268;2023-04-15T08:47:36;96573.63;;;11.37;69.08
5283;BME280;15376;48.540;9.268;2023-04-15T08:50:03;96565.16;;;11.09;71.52
5283;BME280;15376;48.540;9.268;2023-04-15T08:52:33;96572.53;;;11.58;71.00
5283;BME280;15376;48.540;9.268;2023-04-15T08:54:59;96559.41;;;12.01;69.49
5283;BME280;15376;48.540;9.268;2023-04-15T08:57:26;96557.50;;;12.40;67.05
5283;BME280;15376;48.540;9.268;2023-04-15T08:59:54;96567.53;;;12.13;65.64
5283;BME280;15376;48.540;9.268;2023-04-15T09:02:20;96565.69;;;12.13;66.12
5283;BME280;15376;48.540;9.268;2023-04-15T09:04:47;96561.91;;;12.27;66.33
5283;BME280;15376;48.540;9.268;2023-04-15T09:07:12;96561.31;;;12.25;63.79
5283;BME280;15376;48.540;9.268;2023-04-15T09:09:38;96567.19;;;12.59;64.47
5283;BME280;15376;48.540;9.268;2023-04-15T09:12:04;96572.34;;;12.79;65.16
5283;BME280;15376;48.540;9.268;2023-04-15T09:14:29;96573.03;;;12.92;63.24
5283;BME280;15376;48.540;9.268;2023-04-15T09:17:00;96571.00;;;12.88;61.46
5283;BME280;15376;48.540;9.268;2023-04-15T09:19:27;96579.72;;;13.20;61.58
5283;BME280;15376;48.540;9.268;2023-04-15T09:21:54;96573.78;;;13.73;61.80
5283;BME280;15376;48.540;9.268;2023-04-15T09:24:22;96570.44;;;14.07;60.95
5283;BME280;15376;48.540;9.268;2023-04-15T09:26:51;96563.75;;;14.40;58.98
5283;BME280;15376;48.540;9.268;2023-04-15T09:29:16;96575.31;;;14.52;57.66
5283;BME280;15376;48.540;9.268;2023-04-15T09:31:43;96581.31;;;14.77;56.76
5283;BME280;15376;48.540;9.268;2023-04-15T09:34:08;96586.06;;;15.10;53.63
5283;BME280;15376;48.540;9.268;2023-04-15T09:36:54;96582.53;;;15.33;52.97
5283;BME280;15376;48.540;9.268;2023-04-15T09:39:21;96581.41;;;16.38;50.10
5283;BME280;15376;48.540;9.268;2023-04-15T09:41:47;96586.75;;;16.54;47.85
5283;BME280;15376;48.540;9.268;2023-04-15T09:44:27;96590.50;;;16.53;49.06
5283;BME280;15376;48.540;9.268;2023-04-15T09:46:53;96585.22;;;16.58;47.52
5283;BME280;15376;48.540;9.268;2023-04-15T09:49:18;96586.22;;;17.03;46.90
5283;BME280;15376;48.540;9.268;2023-04-15T09:51:44;96583.50;;;17.58;45.10
5283;BME280;15376;48.540;9.268;2023-04-15T09:54:11;96592.47;;;16.91;43.52
5283;BME280;15376;48.540;9.268;2023-04-15T09:56:37;96582.13;;;17.55;42.69
5283;BME280;15376;48.540;9.268;2023-04-15T09:59:06;96589.00;;;16.46;45.35
5283;BME280;15376;48.540;9.268;2023-04-15T10:01:32;96583.53;;;16.86;46.73
5283;BME280;15376;48.540;9.268;2023-04-15T10:03:58;96588.81;;;16.97;45.00
5283;BME280;15376;48.540;9.268;2023-04-15T10:06:26;96584.09;;;17.05;45.19
5283;BME280;15376;48.540;9.268;2023-04-15T10:08:53;96585.63;;;17.78;41.97
5283;BME280;15376;48.540;9.268;2023-04-15T10:11:19;96582.25;;;17.87;40.80
5283;BME280;15376;48.540;9.268;2023-04-15T10:13:48;96580.63;;;18.35;40.66
5283;BME280;15376;48.540;9.268;2023-04-15T10:16:16;96570.75;;;18.46;40.80
5283;BME280;15376;48.540;9.268;2023-04-15T10:18:50;96575.09;;;18.52;39.81
5283;BME280;15376;48.540;9.268;2023-04-15T10:21:19;96584.94;;;17.65;41.87
5283;BME280;15376;48.540;9.268;2023-04-15T10:23:46;96565.31;;;16.38;44.19
5283;BME280;15376;48.540;9.268;2023-04-15T10:26:12;96580.31;;;15.30;45.88
5283;BME280;15376;48.540;9.268;2023-04-15T10:28:39;96582.91;;;15.01;46.88
5283;BME280;15376;48.540;9.268;2023-04-15T10:31:05;96575.59;;;15.09;46.98
5283;BME280;15376;48.540;9.268;2023-04-15T10:33:32;96587.81;;;13.98;48.68
5283;BME280;15376;48.540;9.268;2023-04-15T10:36:03;96586.13;;;14.15;49.38
5283;BME280;15376;48.540;9.268;2023-04-15T10:38:42;96580.91;;;13.60;50.91
5283;BME280;15376;48.540;9.268;2023-04-15T10:44:03;96588.19;;;13.17;52.10
5283;BME280;15376;48.540;9.268;2023-04-15T10:46:37;96590.84;;;12.74;53.49
5283;BME280;15376;48.540;9.268;2023-04-15T10:51:32;96590.84;;;12.17;56.54
5283;BME280;15376;48.540;9.268;2023-04-15T10:53:58;96601.75;;;12.09;57.61
5283;BME280;15376;48.540;9.268;2023-04-15T10:56:24;96582.63;;;11.94;58.77
5283;BME280;15376;48.540;9.268;2023-04-15T10:58:50;96595.78;;;12.14;59.73
5283;BME280;15376;48.540;9.268;2023-04-15T11:01:16;96601.56;;;12.04;59.66
5283;BME280;15376;48.540;9.268;2023-04-15T11:03:43;96600.03;;;12.21;61.20
5283;BME280;15376;48.540;9.268;2023-04-15T11:06:08;96599.63;;;12.24;60.95
5283;BME280;15376;48.540;9.268;2023-04-15T11:08:56;96603.13;;;12.18;61.46
5283;BME280;15376;48.540;9.268;2023-04-15T11:11:50;96601.13;;;12.07;60.85
5283;BME280;15376;48.540;9.268;2023-04-15T11:14:14;96609.22;;;11.94;59.93
5283;BME280;15376;48.540;9.268;2023-04-15T11:16:42;96601.25;;;11.94;61.23
5283;BME280;15376;48.540;9.268;2023-04-15T11:19:09;96599.91;;;12.10;58.17
5283;BME280;15376;48.540;9.268;2023-04-15T11:21:35;96603.19;;;12.05;59.42
5283;BME280;15376;48.540;9.268;2023-04-15T11:24:00;96613.28;;;12.34;60.20
5283;BME280;15376;48.540;9.268;2023-04-15T11:26:26;96609.63;;;12.54;58.92
5283;BME280;15376;48.540;9.268;2023-04-15T11:28:51;96613.75;;;12.99;56.52
5283;BME280;15376;48.540;9.268;2023-04-15T11:31:17;96610.84;;;13.62;54.46
5283;BME280;15376;48.540;9.268;2023-04-15T11:33:54;96616.66;;;13.59;52.35
5283;BME280;15376;48.540;9.268;2023-04-15T11:36:22;96602.22;;;13.97;51.92
5283;BME280;15376;48.540;9.268;2023-04-15T11:38:48;96611.38;;;14.31;49.16
5283;BME280;15376;48.540;9.268;2023-04-15T11:41:13;96619.31;;;14.38;46.35
5283;BME280;15376;48.540;9.268;2023-04-15T11:43:39;96619.69;;;14.53;46.98
5283;BME280;15376;48.540;9.268;2023-04-15T11:46:04;96610.78;;;14.82;46.05
5283;BME280;15376;48.540;9.268;2023-04-15T11:48:35;96619.53;;;15.36;42.98
5283;BME280;15376;48.540;9.268;2023-04-15T11:51:01;96618.47;;;15.37;46.95
5283;BME280;15376;48.540;9.268;2023-04-15T11:53:46;96616.00;;;15.71;45.82
5283;BME280;15376;48.540;9.268;2023-04-15T11:56:24;96628.59;;;15.35;44.72
5283;BME280;15376;48.540;9.268;2023-04-15T11:58:55;96644.69;;;14.28;42.79
5283;BME280;15376;48.540;9.268;2023-04-15T12:01:35;96634.88;;;14.11;45.83
5283;BME280;15376;48.540;9.268;2023-04-15T12:04:13;96638.47;;;13.86;48.03
5283;BME280;15376;48.540;9.268;2023-04-15T12:06:38;96639.16;;;13.63;50.55
5283;BME280;15376;48.540;9.268;2023-04-15T12:09:14;96643.22;;;13.29;51.87
5283;BME280;15376;48.540;9.268;2023-04-15T12:11:45;96650.56;;;13.09;53.14
5283;BME280;15376;48.540;9.268;2023-04-15T12:14:12;96647.31;;;13.07;53.24
5283;BME280;15376;48.540;9.268;2023-04-15T12:16:43;96652.59;;;13.14;53.98
5283;BME280;15376;48.540;9.268;2023-04-15T12:19:12;96645.84;;;13.54;53.89
5283;BME280;15376;48.540;9.268;2023-04-15T12:21:39;96670.19;;;13.76;52.73
5283;BME280;15376;48.540;9.268;2023-04-15T12:24:07;96663.72;;;14.02;51.22
5283;BME280;15376;48.540;9.268;2023-04-15T12:26:34;96659.41;;;14.19;51.86
5283;BME280;15376;48.540;9.268;2023-04-15T12:29:04;96646.72;;;14.75;51.17
5283;BME280;15376;48.540;9.268;2023-04-15T12:31:31;96660.19;;;14.80;50.91
5283;BME280;15376;48.540;9.268;2023-04-15T12:33:57;96653.69;;;14.87;51.09
5283;BME280;15376;48.540;9.268;2023-04-15T12:36:23;96661.59;;;14.71;49.09
5283;BME280;15376;48.540;9.268;2023-04-15T12:38:49;96671.69;;;14.39;49.69
5283;BME280;15376;48.540;9.268;2023-04-15T12:41:14;96662.72;;;13.66;51.88
5283;BME280;15376;48.540;9.268;2023-04-15T12:43:40;96673.50;;;12.85;54.38
5283;BME280;15376;48.540;9.268;2023-04-15T12:46:06;96679.88;;;12.59;56.44
5283;BME280;15376;48.540;9.268;2023-04-15T12:48:33;96677.56;;;12.38;58.31
5283;BME280;15376;48.540;9.268;2023-04-15T12:50:58;96678.81;;;12.35;58.70
5283;BME280;15376;48.540;9.268;2023-04-15T12:53:23;96668.03;;;12.49;60.22
5283;BME280;15376;48.540;9.268;2023-04-15T12:55:50;96661.38;;;12.64;60.60
5283;BME280;15376;48.540;9.268;2023-04-15T12:58:16;96677.94;;;12.73;61.02
5283;BME280;15376;48.540;9.268;2023-04-15T13:00:41;96695.50;;;13.06;60.17
5283;BME280;15376;48.540;9.268;2023-04-15T13:03:07;96695.66;;;12.86;59.46
5283;BME280;15376;48.540;9.268;2023-04-15T13:05:32;96693.19;;;12.84;55.96
5283;BME280;15376;48.540;9.268;2023-04-15T13:07:57;96671.91;;;12.53;54.96
5283;BME280;15376;48.540;9.268;2023-04-15T13:10:23;96693.31;;;12.71;56.50
5283;BME280;15376;48.540;9.268;2023-04-15T13:12:49;96723.53;;;12.52;58.95